Time;durP1;ratioP1;P1;durP2;ratioP2;P2;SDS_P1;SDS_P2;PMS_P1;PMS_P2;Temp;Humidity;BMP_temperature;BMP_pressure;BME280_temperature;BME280_humidity;BME280_pressure;Samples;Min_cycle;Max_cycle;Signal;HPM_P1;HPM_P2
2024/01/07 00:01:11;;;;;;;12.40;7.40;;;;;;;-1.38;99.58;95845.53;110681;1270;131931;-79
2024/01/07 00:04:02;;;;;;;15.40;8.60;;;;;;;-1.38;99.85;95846.94;109360;1272;22514;-79
2024/01/07 00:06:35;;;;;;;8.60;5.60;;;;;;;-1.36;99.84;95850.06;109375;1269;22611;-79
2024/01/07 00:09:09;;;;;;;9.80;6.10;;;;;;;-1.34;99.91;95848.02;109404;1268;22541;-79
2024/01/07 00:11:40;;;;;;;9.10;5.60;;;;;;;-1.35;99.85;95853.52;109369;1251;46530;-79
2024/01/07 00:14:11;;;;;;;9.20;5.90;;;;;;;-1.39;99.74;95854.65;109319;1269;22514;-79
2024/01/07 00:16:44;;;;;;;8.70;5.70;;;;;;;-1.42;99.82;95861.37;109344;1267;22546;-79
2024/01/07 00:19:15;;;;;;;6.90;4.70;;;;;;;-1.45;99.46;95863.58;109319;1272;23261;-79
2024/01/07 00:21:46;;;;;;;7.50;4.70;;;;;;;-1.49;99.75;95862.67;109300;1254;66230;-79
2024/01/07 00:24:17;;;;;;;8.00;5.40;;;;;;;-1.52;99.62;95867.08;109331;1271;22788;-79
2024/01/07 00:26:49;;;;;;;7.30;4.50;;;;;;;-1.56;99.53;95867.05;109354;1267;25303;-79
2024/01/07 00:29:20;;;;;;;7.60;4.70;;;;;;;-1.60;99.55;95868.04;109377;1270;22536;-79
2024/01/07 00:31:54;;;;;;;7.30;5.20;;;;;;;-1.61;99.40;95869.71;109357;1272;46084;-79
2024/01/07 00:34:25;;;;;;;7.30;5.50;;;;;;;-1.65;99.40;95868.80;109315;1272;22469;-79
2024/01/07 00:36:57;;;;;;;8.50;5.80;;;;;;;-1.70;99.35;95868.73;109386;1272;22629;-79
2024/01/07 00:39:31;;;;;;;7.00;4.90;;;;;;;-1.76;99.49;95870.30;109293;1272;22670;-79
2024/01/07 00:42:02;;;;;;;8.50;6.30;;;;;;;-1.79;99.41;95870.34;109297;1265;47039;-79
2024/01/07 00:44:35;;;;;;;12.60;9.20;;;;;;;-1.82;99.49;95871.77;109332;1272;22834;-79
2024/01/07 00:47:06;;;;;;;14.60;10.30;;;;;;;-1.82;99.49;95871.93;109383;1272;25265;-79
2024/01/07 00:49:39;;;;;;;15.80;10.80;;;;;;;-1.82;99.57;95874.88;109339;1272;25301;-79
2024/01/07 00:52:13;;;;;;;14.20;8.90;;;;;;;-1.83;99.43;95877.48;109317;1264;39972;-79
2024/01/07 00:54:47;;;;;;;13.10;9.20;;;;;;;-1.85;99.38;95878.90;109367;1270;22553;-79
2024/01/07 00:57:18;;;;;;;9.20;7.20;;;;;;;-1.86;99.36;95880.42;109369;1272;22770;-79
2024/01/07 00:59:50;;;;;;;12.50;9.20;;;;;;;-1.87;99.40;95877.89;109335;1270;22657;-79
2024/01/07 01:02:26;;;;;;;7.00;5.40;;;;;;;-1.87;99.41;95881.52;110732;1270;34356;-79
2024/01/07 01:04:59;;;;;;;7.60;5.30;;;;;;;-1.88;99.19;95885.92;110769;1272;23059;-79
2024/01/07 01:07:32;;;;;;;6.30;5.00;;;;;;;-1.88;99.40;95887.85;110771;1272;22154;-80
2024/01/07 01:10:04;;;;;;;8.90;5.40;;;;;;;-1.90;99.08;95890.60;110769;1267;22255;-80
2024/01/07 01:12:37;;;;;;;8.80;5.30;;;;;;;-1.94;98.97;95889.21;110696;1272;93777;-79
2024/01/07 01:15:10;;;;;;;7.40;5.70;;;;;;;-1.96;99.09;95893.56;110735;1270;23685;-79
2024/01/07 01:17:44;;;;;;;6.80;5.00;;;;;;;-1.97;98.86;95895.08;110768;1267;22975;-79
2024/01/07 01:20:16;;;;;;;7.90;5.40;;;;;;;-1.97;99.05;95898.38;110767;1272;22190;-79
2024/01/07 01:22:48;;;;;;;9.20;6.20;;;;;;;-1.95;99.33;95896.02;110641;1251;22189;-79
2024/01/07 01:25:20;;;;;;;8.30;5.30;;;;;;;-1.97;98.92;95890.08;110575;1273;22267;-79
2024/01/07 01:27:52;;;;;;;8.00;5.40;;;;;;;-1.96;98.91;95896.63;110658;1273;22265;-79
2024/01/07 01:30:24;;;;;;;8.10;5.80;;;;;;;-1.95;99.15;95892.18;110607;1272;59182;-79
2024/01/07 01:32:56;;;;;;;8.80;5.70;;;;;;;-1.95;99.01;95896.50;110786;1272;22281;-79
2024/01/07 01:35:31;;;;;;;6.60;4.60;;;;;;;-1.94;98.85;95894.65;110748;1272;22375;-80
2024/01/07 01:38:03;;;;;;;8.00;5.20;;;;;;;-1.97;98.98;95897.44;110768;1272;22265;-79
2024/01/07 01:40:40;;;;;;;8.80;5.80;;;;;;;-1.98;98.80;95899.11;110721;1267;37847;-79
2024/01/07 01:43:30;;;;;;;7.00;4.50;;;;;;;-1.99;98.82;95898.91;110803;1272;22224;-79
2024/01/07 01:46:03;;;;;;;4.20;3.20;;;;;;;-2.01;98.56;95896.88;110759;1258;22059;-80
2024/01/07 01:48:37;;;;;;;7.00;4.70;;;;;;;-2.02;98.64;95899.04;110774;1272;22059;-80
2024/01/07 01:51:10;;;;;;;6.80;4.80;;;;;;;-2.04;98.62;95901.54;110758;1267;46979;-79
2024/01/07 01:53:43;;;;;;;7.90;4.70;;;;;;;-2.06;98.54;95900.20;110778;1271;22233;-79
2024/01/07 01:56:15;;;;;;;6.70;4.70;;;;;;;-2.13;98.40;95899.98;110762;1264;23050;-79
2024/01/07 01:58:47;;;;;;;9.10;5.30;;;;;;;-2.15;98.20;95900.20;110811;1256;22176;-80
2024/01/07 02:01:21;;;;;;;6.10;4.60;;;;;;;-2.17;98.32;95901.82;110720;1266;55017;-79
2024/01/07 02:04:03;;;;;;;7.50;4.60;;;;;;;-2.19;98.30;95905.73;110780;1272;22374;-79
2024/01/07 02:06:39;;;;;;;6.80;4.30;;;;;;;-2.19;98.49;95904.61;110749;1266;22193;-80
2024/01/07 02:09:11;;;;;;;6.90;4.90;;;;;;;-2.21;98.45;95907.63;110777;1272;22828;-80
2024/01/07 02:12:05;;;;;;;7.30;5.00;;;;;;;-2.20;98.27;95903.62;110659;1272;103740;-79
2024/01/07 02:14:37;;;;;;;7.20;4.50;;;;;;;-2.21;98.42;95905.35;110741;1272;22177;-79
2024/01/07 02:17:11;;;;;;;7.20;5.10;;;;;;;-2.23;98.29;95904.63;110788;1270;22253;-79
2024/01/07 02:19:43;;;;;;;5.60;4.50;;;;;;;-2.26;98.22;95904.92;110803;1267;22179;-79
2024/01/07 02:22:14;;;;;;;7.40;5.10;;;;;;;-2.31;98.12;95906.80;110707;1271;48097;-80
2024/01/07 02:24:47;;;;;;;6.40;4.30;;;;;;;-2.36;98.00;95906.73;110769;1266;22340;-79
2024/01/07 02:27:18;;;;;;;5.90;4.60;;;;;;;-2.38;98.12;95910.24;110740;1272;22270;-80
2024/01/07 02:29:51;;;;;;;6.90;4.40;;;;;;;-2.41;98.06;95903.46;110686;1271;22212;-79
2024/01/07 02:32:32;;;;;;;7.50;4.80;;;;;;;-2.45;97.97;95912.20;110744;1260;40752;-80
2024/01/07 02:35:06;;;;;;;6.80;4.70;;;;;;;-2.48;98.16;95909.95;110788;1271;22301;-80
2024/01/07 02:37:39;;;;;;;7.00;4.40;;;;;;;-2.47;98.16;95904.99;110770;1266;22402;-80
2024/01/07 02:40:13;;;;;;;5.90;4.40;;;;;;;-2.50;98.10;95906.19;110770;1266;22186;-80
2024/01/07 02:42:46;;;;;;;6.40;4.40;;;;;;;-2.53;97.84;95909.52;110710;1272;41976;-80
2024/01/07 02:45:18;;;;;;;7.20;4.60;;;;;;;-2.54;98.11;95914.80;110807;1266;22207;-80
2024/01/07 02:47:51;;;;;;;6.30;4.60;;;;;;;-2.56;97.94;95915.91;110766;1264;22200;-80
2024/01/07 02:50:24;;;;;;;7.00;4.30;;;;;;;-2.55;98.08;95912.48;110743;1272;56393;-80
2024/01/07 02:53:04;;;;;;;5.10;4.30;;;;;;;-2.58;98.07;95915.86;110759;1269;22349;-80
2024/01/07 02:55:35;;;;;;;6.20;4.30;;;;;;;-2.60;97.81;95913.66;110738;1272;22236;-80
2024/01/07 02:58:08;;;;;;;7.20;4.70;;;;;;;-2.63;97.73;95913.16;110785;1266;22198;-80
2024/01/07 03:00:40;;;;;;;6.20;4.30;;;;;;;-2.64;97.60;95914.16;110677;1271;77028;-80
2024/01/07 03:03:12;;;;;;;7.20;4.40;;;;;;;-2.65;97.68;95915.18;110776;1272;22220;-80
2024/01/07 03:05:44;;;;;;;5.00;4.00;;;;;;;-2.68;97.80;95916.27;110751;1266;22129;-80
2024/01/07 03:08:16;;;;;;;6.00;3.90;;;;;;;-2.71;97.49;95915.13;110769;1266;22423;-80
2024/01/07 03:10:48;;;;;;;6.50;4.70;;;;;;;-2.73;97.57;95916.70;110658;1272;84706;-80
2024/01/07 03:13:19;;;;;;;6.40;4.50;;;;;;;-2.73;97.55;95916.11;110783;1266;22295;-80
2024/01/07 03:15:53;;;;;;;6.70;4.00;;;;;;;-2.77;97.50;95920.14;110578;1264;22281;-80
2024/01/07 03:18:29;;;;;;;5.40;3.80;;;;;;;-2.75;97.63;95922.31;110777;1265;22291;-80
2024/01/07 03:21:06;;;;;;;6.00;3.70;;;;;;;-2.74;97.50;95924.33;110721;1271;52552;-80
2024/01/07 03:23:40;;;;;;;7.20;4.50;;;;;;;-2.71;97.59;95918.04;110771;1265;22227;-80
2024/01/07 03:26:13;;;;;;;6.20;4.30;;;;;;;-2.75;97.48;95916.24;110773;1266;23153;-80
2024/01/07 03:28:46;;;;;;;5.90;4.20;;;;;;;-2.78;97.33;95912.28;110769;1270;22422;-80
2024/01/07 03:31:20;;;;;;;5.50;3.90;;;;;;;-2.83;97.37;95913.62;110714;1272;59308;-80
2024/01/07 03:33:56;;;;;;;5.90;4.20;;;;;;;-2.87;97.22;95911.73;109375;1265;22553;-80
2024/01/07 03:36:29;;;;;;;6.20;4.50;;;;;;;-2.90;97.07;95920.83;109453;1269;22455;-80
2024/01/07 03:39:06;;;;;;;6.60;4.30;;;;;;;-2.91;97.21;95923.23;109403;1266;22570;-80
2024/01/07 03:41:38;;;;;;;5.50;3.90;;;;;;;-2.95;97.17;95921.49;109335;1272;55636;-80
2024/01/07 03:44:10;;;;;;;5.90;4.10;;;;;;;-3.00;97.00;95929.41;109399;1266;22562;-80
2024/01/07 03:46:41;;;;;;;7.00;4.30;;;;;;;-3.06;96.90;95928.35;109403;1272;22478;-80
2024/01/07 03:49:12;;;;;;;7.20;4.30;;;;;;;-3.11;96.90;95930.04;109366;1271;22479;-79
2024/01/07 03:51:44;;;;;;;6.50;4.00;;;;;;;-3.16;96.66;95931.67;109387;1271;66926;-80
2024/01/07 03:54:16;;;;;;;5.10;3.40;;;;;;;-3.20;96.77;95931.99;109422;1271;22771;-80
2024/01/07 03:56:47;;;;;;;6.60;3.70;;;;;;;-3.21;96.81;95935.70;109414;1272;23826;-80
2024/01/07 03:59:18;;;;;;;6.70;4.00;;;;;;;-3.24;96.86;95930.23;109396;1269;25430;-80
2024/01/07 04:01:49;;;;;;;6.70;4.30;;;;;;;-3.28;96.80;95936.36;109374;1266;39443;-80
2024/01/07 04:04:21;;;;;;;6.20;4.00;;;;;;;-3.32;96.75;95939.02;109405;1272;22644;-80
2024/01/07 04:06:53;;;;;;;5.30;3.80;;;;;;;-3.34;96.85;95943.83;109420;1272;22517;-80
2024/01/07 04:09:30;;;;;;;6.10;4.20;;;;;;;-3.41;96.60;95938.73;109398;1271;22579;-80
2024/01/07 04:12:01;;;;;;;7.40;4.60;;;;;;;-3.45;96.54;95939.80;109411;1270;42470;-80
2024/01/07 04:14:35;;;;;;;5.40;3.30;;;;;;;-3.48;96.62;95944.13;109400;1271;23824;-80
2024/01/07 04:17:08;;;;;;;5.40;3.50;;;;;;;-3.48;96.77;95942.27;109402;1272;23755;-80
2024/01/07 04:19:40;;;;;;;4.90;3.60;;;;;;;-3.52;96.61;95945.41;109413;1272;22576;-80
2024/01/07 04:22:11;;;;;;;5.00;3.90;;;;;;;-3.54;96.67;95942.63;109338;1269;42256;-80
2024/01/07 04:24:45;;;;;;;7.50;4.40;;;;;;;-3.58;96.65;95942.68;109427;1272;22560;-80
2024/01/07 04:27:18;;;;;;;5.60;3.50;;;;;;;-3.58;96.67;95942.52;109401;1272;22497;-80
2024/01/07 04:29:49;;;;;;;5.80;3.60;;;;;;;-3.58;96.55;95942.33;109403;1272;22583;-80
2024/01/07 04:32:20;;;;;;;6.80;3.70;;;;;;;-3.60;96.70;95943.42;109421;1266;30984;-80
2024/01/07 04:34:54;;;;;;;5.50;3.30;;;;;;;-3.56;96.67;95944.79;109463;1272;22988;-80
2024/01/07 04:37:28;;;;;;;5.60;3.90;;;;;;;-3.57;96.61;95951.05;109422;1264;22549;-80
2024/01/07 04:40:03;;;;;;;5.30;3.60;;;;;;;-3.53;96.78;95951.63;109419;1271;24407;-80
2024/01/07 04:42:36;;;;;;;5.20;3.60;;;;;;;-3.54;96.81;95953.64;109188;1269;121117;-80
2024/01/07 04:45:09;;;;;;;4.60;3.50;;;;;;;-3.57;96.49;95964.55;109395;1271;22517;-80
2024/01/07 04:47:40;;;;;;;6.50;4.00;;;;;;;-3.62;96.30;95965.98;109421;1271;22479;-80
2024/01/07 04:50:13;;;;;;;4.40;3.10;;;;;;;-3.64;96.42;95968.95;109406;1257;23329;-80
2024/01/07 04:52:46;;;;;;;5.90;3.50;;;;;;;-3.64;96.43;95970.66;109356;1271;57707;-80
2024/01/07 04:55:17;;;;;;;7.10;3.10;;;;;;;-3.65;96.38;95970.94;109378;1257;24189;-80
2024/01/07 04:57:49;;;;;;;5.00;3.10;;;;;;;-3.66;96.17;95973.53;109399;1266;23305;-80
2024/01/07 05:00:22;;;;;;;5.40;3.00;;;;;;;-3.68;96.24;95972.58;109398;1272;22613;-80
2024/01/07 05:02:58;;;;;;;5.80;3.20;;;;;;;-3.69;96.13;95973.01;109365;1270;22570;-80
2024/01/07 05:05:32;;;;;;;5.50;3.30;;;;;;;-3.74;96.03;95973.55;109335;1266;25390;-80
2024/01/07 05:08:07;;;;;;;5.30;3.20;;;;;;;-3.76;96.01;95972.77;109256;1262;25240;-80
2024/01/07 05:10:38;;;;;;;5.10;3.10;;;;;;;-3.78;96.05;95976.95;109359;1272;58292;-80
2024/01/07 05:13:10;;;;;;;6.10;3.30;;;;;;;-3.80;95.85;95980.39;109406;1265;22458;-80
2024/01/07 05:15:45;;;;;;;4.40;2.80;;;;;;;-3.84;95.74;95981.77;109364;1271;23510;-80
2024/01/07 05:18:16;;;;;;;4.80;2.90;;;;;;;-3.85;95.79;95989.20;109374;1272;22672;-80
2024/01/07 05:20:47;;;;;;;4.80;3.50;;;;;;;-3.85;95.75;95989.47;109353;1272;38177;-80
2024/01/07 05:23:18;;;;;;;3.70;2.60;;;;;;;-3.83;95.82;95989.63;109426;1272;22820;-80
2024/01/07 05:25:50;;;;;;;3.40;2.50;;;;;;;-3.88;95.61;95988.36;109379;1269;24215;-80
2024/01/07 05:28:24;;;;;;;2.70;2.00;;;;;;;-3.89;95.55;95987.98;109349;1269;22600;-80
2024/01/07 05:30:58;;;;;;;5.70;2.90;;;;;;;-3.93;95.48;95991.36;109332;1266;39723;-80
2024/01/07 05:33:31;;;;;;;3.50;2.70;;;;;;;-3.98;95.40;95993.64;109274;1271;22547;-80
2024/01/07 05:36:05;;;;;;;3.40;2.30;;;;;;;-4.08;95.20;95995.29;109401;1266;22570;-80
2024/01/07 05:38:36;;;;;;;4.30;2.20;;;;;;;-4.14;95.10;95996.53;109394;1269;22466;-80
2024/01/07 05:41:07;;;;;;;3.70;2.30;;;;;;;-4.18;94.98;95995.79;109378;1271;40801;-80
2024/01/07 05:43:39;;;;;;;4.20;2.70;;;;;;;-4.16;95.29;95997.77;109381;1271;25446;-80
2024/01/07 05:46:13;;;;;;;6.60;3.20;;;;;;;-4.17;95.24;95996.81;109407;1266;22522;-80
2024/01/07 05:48:49;;;;;;;21.40;11.40;;;;;;;-4.21;95.26;95994.12;109258;1267;24183;-81
2024/01/07 05:51:20;;;;;;;6.50;4.10;;;;;;;-4.16;95.33;95998.65;109319;1272;61864;-80
2024/01/07 05:53:55;;;;;;;20.00;8.80;;;;;;;-4.14;95.30;95999.95;109349;1266;23477;-80
2024/01/07 05:56:28;;;;;;;10.20;5.40;;;;;;;-4.18;95.13;96008.41;109401;1271;22732;-80
2024/01/07 05:59:02;;;;;;;8.70;4.20;;;;;;;-4.21;95.22;96009.61;109334;1269;25457;-80
2024/01/07 06:01:33;;;;;;;14.40;7.00;;;;;;;-4.20;95.30;96016.81;109344;1269;85025;-80
2024/01/07 06:04:05;;;;;;;11.50;5.50;;;;;;;-4.17;95.28;96015.33;109406;1272;22585;-80
2024/01/07 06:06:37;;;;;;;14.50;6.90;;;;;;;-4.14;95.30;96018.98;109270;1272;25137;-81
2024/01/07 06:09:08;;;;;;;7.00;3.40;;;;;;;-4.12;95.30;96019.23;109433;1269;23790;-80
2024/01/07 06:11:39;;;;;;;6.70;4.00;;;;;;;-4.10;95.18;96017.90;109304;1266;51635;-81
2024/01/07 06:14:13;;;;;;;11.80;5.80;;;;;;;-4.13;95.19;96020.41;109418;1272;22479;-81
2024/01/07 06:16:47;;;;;;;8.40;3.70;;;;;;;-4.12;95.19;96022.84;109352;1249;23801;-80
2024/01/07 06:19:19;;;;;;;12.70;6.40;;;;;;;-4.15;94.98;96022.30;109368;1266;22546;-81
2024/01/07 06:21:52;;;;;;;6.40;3.80;;;;;;;-4.17;94.88;96028.03;109329;1263;38674;-81
2024/01/07 06:24:30;;;;;;;4.80;2.50;;;;;;;-4.21;94.82;96029.27;109412;1272;22556;-80
2024/01/07 06:27:04;;;;;;;9.20;4.50;;;;;;;-4.22;94.90;96033.14;109367;1262;22523;-81
2024/01/07 06:29:40;;;;;;;6.00;3.40;;;;;;;-4.24;94.78;96037.34;109363;1271;22564;-81
2024/01/07 06:32:14;;;;;;;3.80;2.40;;;;;;;-4.24;94.74;96040.69;109397;1266;35782;-80
2024/01/07 06:34:46;;;;;;;4.60;2.70;;;;;;;-4.27;94.76;96043.42;109382;1272;22534;-81
2024/01/07 06:37:21;;;;;;;5.10;3.00;;;;;;;-4.21;94.87;96042.73;110785;1272;22218;-81
2024/01/07 06:39:52;;;;;;;3.20;2.20;;;;;;;-4.17;94.88;96048.98;109474;1262;22586;-81
2024/01/07 06:42:26;;;;;;;2.70;2.10;;;;;;;-4.18;94.86;96048.58;109312;1272;48270;-80
2024/01/07 06:45:02;;;;;;;4.70;2.50;;;;;;;-4.19;94.68;96046.75;109397;1259;22540;-80
2024/01/07 06:47:33;;;;;;;6.10;2.80;;;;;;;-4.18;94.76;96052.32;109389;1272;22611;-80
2024/01/07 06:50:05;;;;;;;3.20;2.40;;;;;;;-4.19;94.57;96055.87;109420;1272;22540;-81
2024/01/07 06:52:36;;;;;;;4.90;2.90;;;;;;;-4.20;94.53;96054.55;109224;1272;37752;-81
2024/01/07 06:55:09;;;;;;;3.40;2.30;;;;;;;-4.20;94.36;96057.31;109380;1266;22931;-80
2024/01/07 06:57:40;;;;;;;5.00;2.50;;;;;;;-4.24;94.36;96058.48;109322;1265;22525;-81
2024/01/07 07:00:14;;;;;;;3.30;2.30;;;;;;;-4.26;94.44;96063.54;109378;1272;22951;-81
2024/01/07 07:02:46;;;;;;;4.20;2.60;;;;;;;-4.31;94.34;96065.58;109294;1266;116526;-80
2024/01/07 07:05:17;;;;;;;4.00;2.20;;;;;;;-4.36;94.31;96064.70;109356;1269;22559;-81
2024/01/07 07:07:48;;;;;;;3.60;2.30;;;;;;;-4.29;94.31;96072.45;109366;1266;22528;-81
2024/01/07 07:10:19;;;;;;;3.60;2.40;;;;;;;-4.27;94.45;96071.81;109368;1266;22651;-81
2024/01/07 07:12:51;;;;;;;5.10;3.00;;;;;;;-4.22;94.45;96067.92;109280;1253;22531;-80
2024/01/07 07:15:27;;;;;;;5.80;2.80;;;;;;;-4.22;94.47;96065.45;109277;1272;22586;-80
2024/01/07 07:17:59;;;;;;;6.00;3.30;;;;;;;-4.21;94.46;96063.76;109266;1268;22542;-81
2024/01/07 07:20:33;;;;;;;4.20;2.90;;;;;;;-4.21;94.42;96067.42;109190;1269;63656;-81
2024/01/07 07:23:08;;;;;;;5.20;2.70;;;;;;;-4.26;94.31;96069.71;109417;1272;22518;-80
2024/01/07 07:25:45;;;;;;;3.80;2.40;;;;;;;-4.26;94.26;96072.17;109309;1254;22629;-81
2024/01/07 07:28:17;;;;;;;4.80;2.70;;;;;;;-4.25;94.26;96074.24;109364;1272;23374;-81
2024/01/07 07:30:48;;;;;;;22.90;9.80;;;;;;;-4.25;94.18;96081.01;109298;1266;110620;-81
2024/01/07 07:33:19;;;;;;;21.10;9.00;;;;;;;-4.22;94.35;96082.30;109391;1266;22584;-81
2024/01/07 07:35:51;;;;;;;37.80;13.60;;;;;;;-4.26;94.20;96079.59;109288;1272;23224;-81
2024/01/07 07:38:30;;;;;;;25.00;8.90;;;;;;;-4.22;94.28;96086.16;109414;1266;22529;-81
2024/01/07 07:41:02;;;;;;;8.40;4.80;;;;;;;-4.17;94.08;96085.09;109318;1266;68484;-81
2024/01/07 07:43:36;;;;;;;5.80;3.30;;;;;;;-4.13;94.22;96091.92;109363;1266;22597;-80
2024/01/07 07:46:08;;;;;;;8.20;4.00;;;;;;;-4.13;94.05;96098.35;109383;1266;22667;-80
2024/01/07 07:48:39;;;;;;;6.50;4.30;;;;;;;-4.11;94.15;96100.24;109359;1266;22643;-80
2024/01/07 07:51:10;;;;;;;7.40;4.60;;;;;;;-4.10;93.95;96101.67;109303;1266;59547;-80
2024/01/07 07:53:55;;;;;;;5.20;3.10;;;;;;;-4.08;93.78;96103.76;109353;1272;22670;-80
2024/01/07 07:56:28;;;;;;;6.40;3.50;;;;;;;-4.08;93.67;96105.92;109342;1272;22598;-80
2024/01/07 07:59:03;;;;;;;6.70;4.00;;;;;;;-4.07;93.90;96104.17;109379;1272;23007;-80
2024/01/07 08:01:39;;;;;;;6.90;4.00;;;;;;;-4.08;93.68;96109.67;109274;1269;79082;-80
2024/01/07 08:04:10;;;;;;;4.20;2.80;;;;;;;-4.06;93.74;96106.09;109314;1266;22543;-80
2024/01/07 08:06:44;;;;;;;4.90;3.30;;;;;;;-4.09;93.45;96111.45;109365;1272;23180;-80
2024/01/07 08:09:16;;;;;;;7.50;3.60;;;;;;;-4.11;93.50;96108.61;109382;1266;22587;-80
2024/01/07 08:11:47;;;;;;;6.20;3.20;;;;;;;-4.16;93.47;96113.72;109291;1262;109673;-80
2024/01/07 08:14:19;;;;;;;7.00;3.80;;;;;;;-4.15;93.58;96115.63;109348;1272;22552;-80
2024/01/07 08:16:50;;;;;;;6.00;3.40;;;;;;;-4.16;93.50;96118.73;109330;1272;22526;-80
2024/01/07 08:19:24;;;;;;;5.90;3.30;;;;;;;-4.16;93.50;96121.68;109360;1249;22521;-80
2024/01/07 08:22:00;;;;;;;4.70;3.00;;;;;;;-4.16;93.29;96121.59;109317;1272;74165;-80
2024/01/07 08:24:31;;;;;;;6.50;3.20;;;;;;;-4.19;93.23;96119.73;109387;1266;22556;-80
2024/01/07 08:27:06;;;;;;;5.50;3.60;;;;;;;-4.17;93.30;96121.13;109361;1266;22559;-80
2024/01/07 08:29:38;;;;;;;5.40;3.40;;;;;;;-4.14;93.28;96126.18;109368;1272;24289;-80
2024/01/07 08:32:09;;;;;;;5.80;3.40;;;;;;;-4.11;93.41;96123.27;109301;1266;46431;-80
2024/01/07 08:34:41;;;;;;;5.50;3.30;;;;;;;-4.06;93.29;96129.21;109366;1266;22535;-80
2024/01/07 08:37:12;;;;;;;4.60;2.80;;;;;;;-4.03;93.28;96136.51;109352;1272;22552;-80
2024/01/07 08:39:46;;;;;;;4.90;3.30;;;;;;;-3.98;93.33;96137.77;109395;1263;22484;-80
2024/01/07 08:42:17;;;;;;;6.20;3.70;;;;;;;-4.01;93.17;96135.95;109159;1250;85262;-80
2024/01/07 08:44:49;;;;;;;5.00;3.20;;;;;;;-4.03;92.99;96141.48;109369;1272;22582;-80
2024/01/07 08:47:20;;;;;;;5.70;3.00;;;;;;;-4.08;92.72;96139.73;109376;1272;25291;-80
2024/01/07 08:49:55;;;;;;;5.70;3.20;;;;;;;-4.12;92.64;96141.87;109402;1271;23269;-80
2024/01/07 08:52:28;;;;;;;4.00;2.60;;;;;;;-4.11;92.67;96142.38;109292;1266;58113;-80
2024/01/07 08:55:00;;;;;;;5.40;3.30;;;;;;;-4.12;92.67;96144.77;109384;1266;22553;-80
2024/01/07 08:57:31;;;;;;;6.20;3.40;;;;;;;-4.14;92.66;96148.11;109364;1272;22559;-80
2024/01/07 09:00:04;;;;;;;5.40;3.20;;;;;;;-4.09;92.84;96148.16;109325;1266;22523;-79
2024/01/07 09:02:40;;;;;;;5.20;3.40;;;;;;;-4.08;92.57;96150.16;109268;1272;89171;-80
2024/01/07 09:05:13;;;;;;;6.20;3.30;;;;;;;-4.12;92.39;96153.17;109339;1272;23032;-80
2024/01/07 09:07:44;;;;;;;5.70;3.30;;;;;;;-4.11;92.50;96146.33;109344;1272;22556;-80
2024/01/07 09:10:16;;;;;;;5.40;3.50;;;;;;;-4.09;92.39;96148.15;109404;1266;22864;-80
2024/01/07 09:12:49;;;;;;;5.80;3.30;;;;;;;-4.09;92.42;96150.86;109299;1272;66156;-79
2024/01/07 09:15:21;;;;;;;5.30;3.40;;;;;;;-4.08;92.31;96150.13;109326;1266;22561;-79
2024/01/07 09:17:58;;;;;;;5.40;3.40;;;;;;;-4.08;92.33;96149.73;110722;1271;22167;-80
2024/01/07 09:20:31;;;;;;;7.20;3.80;;;;;;;-4.10;92.14;96148.27;110720;1264;91328;-80
2024/01/07 09:23:05;;;;;;;5.20;3.20;;;;;;;-4.10;91.91;96147.80;110711;1271;22195;-80
2024/01/07 09:25:39;;;;;;;6.90;3.00;;;;;;;-4.11;92.03;96151.19;110664;1272;22966;-80
2024/01/07 09:28:12;;;;;;;7.10;3.50;;;;;;;-4.11;91.84;96151.22;110743;1265;22275;-80
2024/01/07 09:30:44;;;;;;;6.30;3.70;;;;;;;-4.09;91.91;96154.17;109551;1271;77085;-80
2024/01/07 09:33:16;;;;;;;6.80;3.70;;;;;;;-4.04;91.79;96157.50;109352;1272;23878;-80
2024/01/07 09:35:47;;;;;;;8.10;4.20;;;;;;;-3.99;91.94;96159.04;109404;1268;22574;-80
2024/01/07 09:38:20;;;;;;;6.90;3.70;;;;;;;-3.92;91.90;96153.05;109367;1266;23416;-80
2024/01/07 09:40:53;;;;;;;5.30;3.50;;;;;;;-3.86;91.92;96151.80;109322;1269;39193;-80
2024/01/07 09:43:24;;;;;;;7.40;4.50;;;;;;;-3.88;91.64;96151.41;109337;1266;22551;-80
2024/01/07 09:45:57;;;;;;;9.60;5.00;;;;;;;-3.80;91.79;96152.49;109341;1269;24238;-80
2024/01/07 09:48:29;;;;;;;6.90;3.90;;;;;;;-3.74;91.84;96156.28;109386;1272;22616;-80
2024/01/07 09:51:02;;;;;;;7.10;4.30;;;;;;;-3.68;91.71;96155.11;109325;1272;32737;-80
2024/01/07 09:53:42;;;;;;;7.30;3.80;;;;;;;-3.66;91.78;96151.73;110715;1271;22960;-80
2024/01/07 09:56:28;;;;;;;7.30;4.10;;;;;;;-3.58;91.72;96153.20;110743;1271;22214;-79
2024/01/07 09:59:01;;;;;;;7.70;4.50;;;;;;;-3.55;91.46;96155.41;110746;1266;22373;-80
2024/01/07 10:01:35;;;;;;;7.00;4.70;;;;;;;-3.54;91.38;96154.11;110663;1270;46646;-80
2024/01/07 10:04:09;;;;;;;7.30;4.20;;;;;;;-3.52;91.20;96146.86;110697;1271;23036;-80
2024/01/07 10:06:42;;;;;;;6.30;4.20;;;;;;;-3.60;90.82;96151.05;110729;1266;22238;-80
2024/01/07 10:09:14;;;;;;;7.70;4.30;;;;;;;-3.58;91.09;96151.37;110552;1269;22559;-80
2024/01/07 10:11:45;;;;;;;6.70;4.40;;;;;;;-3.56;90.90;96146.27;109319;1269;35856;-80
2024/01/07 10:14:17;;;;;;;6.30;4.10;;;;;;;-3.53;91.03;96148.16;109389;1269;22562;-80
2024/01/07 10:16:48;;;;;;;6.50;4.20;;;;;;;-3.50;90.92;96149.58;109372;1269;25355;-80
2024/01/07 10:19:33;;;;;;;7.40;4.00;;;;;;;-3.44;90.97;96151.43;109352;1272;24926;-80
2024/01/07 10:22:05;;;;;;;10.60;6.00;;;;;;;-3.40;90.82;96151.05;109277;1269;71206;-80
2024/01/07 10:24:41;;;;;;;11.90;6.90;;;;;;;-3.37;90.82;96149.27;109358;1271;22743;-80
2024/01/07 10:27:13;;;;;;;18.20;10.90;;;;;;;-3.48;90.48;96150.17;109312;1266;25340;-80
2024/01/07 10:29:50;;;;;;;17.80;10.20;;;;;;;-3.49;90.88;96144.48;109359;1272;22795;-80
2024/01/07 10:32:23;;;;;;;12.60;8.20;;;;;;;-3.48;90.63;96143.52;109248;1266;42256;-80
2024/01/07 10:35:03;;;;;;;23.70;14.40;;;;;;;-3.50;90.44;96143.98;109371;1266;23467;-80
2024/01/07 10:37:36;;;;;;;14.20;8.90;;;;;;;-3.58;90.13;96146.23;109350;1270;22522;-80
2024/01/07 10:40:13;;;;;;;12.20;7.10;;;;;;;-3.63;90.17;96149.27;109317;1250;22612;-80
2024/01/07 10:42:47;;;;;;;13.40;8.50;;;;;;;-3.64;90.27;96148.52;110672;1272;47057;-80
2024/01/07 10:45:19;;;;;;;14.60;9.70;;;;;;;-3.59;90.52;96138.73;110608;1266;179969;-80
2024/01/07 10:47:56;;;;;;;18.30;10.30;;;;;;;-3.56;90.45;96144.86;110694;1266;22280;-80
2024/01/07 10:50:30;;;;;;;15.00;9.40;;;;;;;-3.62;90.07;96142.69;110691;1265;29069;-80
2024/01/07 10:53:08;;;;;;;10.30;7.20;;;;;;;-3.61;90.18;96139.66;109961;1272;22523;-80
2024/01/07 10:55:46;;;;;;;10.10;6.70;;;;;;;-3.57;90.41;96135.33;109338;1266;23236;-80
2024/01/07 10:58:19;;;;;;;8.10;5.10;;;;;;;-3.52;90.30;96134.86;109337;1272;22551;-80
2024/01/07 11:00:52;;;;;;;15.70;7.60;;;;;;;-3.53;89.90;96137.41;109291;1272;37602;-80
2024/01/07 11:03:39;;;;;;;7.00;4.90;;;;;;;-3.49;90.07;96134.99;110573;1269;22863;-80
2024/01/07 11:06:20;;;;;;;9.80;5.40;;;;;;;-3.44;90.18;96138.27;109336;1266;22468;-80
2024/01/07 11:08:59;;;;;;;7.60;4.90;;;;;;;-3.41;90.24;96138.86;109327;1269;23355;-80
2024/01/07 11:11:42;;;;;;;8.00;4.60;;;;;;;-3.37;90.07;96139.40;110679;1266;52006;-80
2024/01/07 11:14:39;;;;;;;8.90;5.10;;;;;;;-3.34;89.99;96137.83;109473;1272;22549;-80
2024/01/07 11:17:10;;;;;;;7.70;4.20;;;;;;;-3.33;89.72;96134.04;109349;1271;22509;-80
2024/01/07 11:19:56;;;;;;;7.10;4.60;;;;;;;-3.36;89.61;96136.32;109348;1266;22597;-80
2024/01/07 11:22:32;;;;;;;8.60;4.90;;;;;;;-3.44;89.25;96136.16;109262;1272;95574;-80
2024/01/07 11:25:24;;;;;;;7.90;5.10;;;;;;;-3.51;89.27;96134.42;109338;1272;22545;-80
2024/01/07 11:28:02;;;;;;;7.90;4.90;;;;;;;-3.57;89.19;96134.67;110651;1272;22196;-80
2024/01/07 11:30:41;;;;;;;8.80;5.80;;;;;;;-3.63;89.01;96137.27;110626;1265;112228;-80
2024/01/07 11:33:16;;;;;;;8.30;6.00;;;;;;;-3.64;89.19;96143.14;110752;1271;23465;-80
2024/01/07 11:36:04;;;;;;;8.60;5.40;;;;;;;-3.52;89.60;96141.84;110698;1269;22273;-80
2024/01/07 11:38:39;;;;;;;9.60;5.40;;;;;;;-3.49;89.27;96139.48;110733;1266;22290;-80
2024/01/07 11:41:13;;;;;;;7.10;5.00;;;;;;;-3.55;88.96;96137.88;110673;1265;38796;-80
2024/01/07 11:43:59;;;;;;;8.20;5.20;;;;;;;-3.57;89.06;96139.33;110708;1269;23258;-80
2024/01/07 11:46:32;;;;;;;5.60;3.80;;;;;;;-3.54;89.19;96137.84;110518;1272;22254;-80
2024/01/07 11:49:04;;;;;;;8.70;5.40;;;;;;;-3.55;89.04;96134.17;110522;1267;22319;-80
2024/01/07 11:51:38;;;;;;;10.60;5.70;;;;;;;-3.55;89.04;96136.41;110485;1269;100949;-80
2024/01/07 11:54:11;;;;;;;11.10;5.50;;;;;;;-3.56;88.79;96134.54;110532;1274;22385;-80